Time;durP1;ratioP1;P1;durP2;ratioP2;P2;SDS_P1;SDS_P2;PMS_P1;PMS_P2;Temp;Humidity;BMP_temperature;BMP_pressure;BME280_temperature;BME280_humidity;BME280_pressure;Samples;Min_cycle;Max_cycle;Signal;HPM_P1;HPM_P2
2023/05/14 00:01:38;;;;;;;36.10;20.40;;;;;;;;;;107103;1275;23896;-81
2023/05/14 00:04:07;;;;;;;34.00;20.10;;;;;;;;;;107069;1257;25535;-79
2023/05/14 00:06:34;;;;;;;34.20;20.20;;;;;;;;;;107098;1275;25325;-75
2023/05/14 00:09:05;;;;;;;34.60;19.60;;;;;;;;;;107052;1275;22643;-77
2023/05/14 00:11:32;;;;;;;31.70;19.00;;;;;;;;;;107057;1275;22531;-82
2023/05/14 00:14:01;;;;;;;31.50;18.50;;;;;;;;;;107094;1256;24353;-82
2023/05/14 00:16:35;;;;;;;34.30;20.10;;;;;;;;;;107050;1275;22520;-77
2023/05/14 00:19:08;;;;;;;28.30;18.00;;;;;;;;;;106878;1275;23873;-76
2023/05/14 00:21:40;;;;;;;31.00;18.40;;;;;;;;;;106890;1275;22636;-81
2023/05/14 00:24:07;;;;;;;30.00;17.20;;;;;;;;;;107102;1275;25484;-81
2023/05/14 00:26:34;;;;;;;29.60;17.90;;;;;;;;;;107140;1275;22753;-80
2023/05/14 00:29:01;;;;;;;31.30;19.10;;;;;;;;;;107039;1275;22766;-82
2023/05/14 00:31:30;;;;;;;28.00;19.00;;;;;;;;;;107177;1275;22524;-80
2023/05/14 00:33:57;;;;;;;33.30;19.20;;;;;;;;;;107035;1257;22520;-81
2023/05/14 00:36:24;;;;;;;29.50;17.70;;;;;;;;;;107051;1275;22537;-80
2023/05/14 00:38:51;;;;;;;26.00;16.20;;;;;;;;;;106894;1276;22541;-82
2023/05/14 00:41:38;;;;;;;30.30;17.50;;;;;;;;;;107029;1275;25279;-77
2023/05/14 00:44:05;;;;;;;27.40;16.40;;;;;;;;;;107043;1256;22488;-81
2023/05/14 00:46:32;;;;;;;26.10;16.70;;;;;;;;;;106850;1275;25353;-75
2023/05/14 00:48:59;;;;;;;30.80;17.70;;;;;;;;;;107052;1275;22743;-82
2023/05/14 00:51:31;;;;;;;29.40;17.20;;;;;;;;;;106878;1275;23179;-80
2023/05/14 00:53:57;;;;;;;30.70;17.20;;;;;;;;;;107011;1256;22520;-82
2023/05/14 00:56:27;;;;;;;29.00;17.80;;;;;;;;;;107023;1253;22524;-78
2023/05/14 00:58:55;;;;;;;30.60;17.80;;;;;;;;;;107009;1275;23410;-79
2023/05/14 01:01:21;;;;;;;29.30;17.50;;;;;;;;;;107011;1275;22536;-77
2023/05/14 01:03:56;;;;;;;27.50;16.10;;;;;;;;;;107019;1254;22520;-83
2023/05/14 01:06:36;;;;;;;29.70;17.00;;;;;;;;;;106910;1275;22520;-77
2023/05/14 01:09:09;;;;;;;27.00;16.00;;;;;;;;;;106900;1275;24651;-77
2023/05/14 01:11:45;;;;;;;26.80;15.70;;;;;;;;;;107059;1275;23879;-81
2023/05/14 01:14:30;;;;;;;30.70;17.00;;;;;;;;;;106863;1264;24368;-81
2023/05/14 01:17:01;;;;;;;31.80;17.70;;;;;;;;;;106923;1275;22531;-82
2023/05/14 01:19:32;;;;;;;36.20;17.60;;;;;;;;;;107061;1275;25377;-79
2023/05/14 01:21:59;;;;;;;33.30;19.50;;;;;;;;;;107017;1275;22650;-81
2023/05/14 01:24:26;;;;;;;30.00;17.90;;;;;;;;;;107019;1253;23898;-92
2023/05/14 01:27:13;;;;;;;30.30;17.50;;;;;;;;;;106893;1275;22541;-82
2023/05/14 01:29:42;;;;;;;27.70;16.20;;;;;;;;;;106875;1275;22539;-76
2023/05/14 01:32:09;;;;;;;29.10;16.10;;;;;;;;;;106887;1276;25312;-80
2023/05/14 01:34:40;;;;;;;28.90;16.70;;;;;;;;;;107047;1275;24252;-80
2023/05/14 01:37:07;;;;;;;32.70;17.60;;;;;;;;;;106863;1276;22520;-83
2023/05/14 01:39:38;;;;;;;30.50;18.40;;;;;;;;;;106877;1275;25350;-79
2023/05/14 01:42:06;;;;;;;33.20;17.50;;;;;;;;;;107065;1275;24079;-77
2023/05/14 01:44:35;;;;;;;30.20;18.60;;;;;;;;;;106864;1253;25352;-79
2023/05/14 01:47:02;;;;;;;32.10;18.00;;;;;;;;;;106812;1275;22533;-82
2023/05/14 01:49:49;;;;;;;30.10;18.60;;;;;;;;;;106896;1275;24189;-77
2023/05/14 01:52:19;;;;;;;30.40;16.80;;;;;;;;;;107037;1275;24375;-80
2023/05/14 01:54:59;;;;;;;;;;;;;;;;;;;;;
2023/05/14 02:02:01;;;;;;;33.50;18.10;;;;;;;;;;106810;1279;22646;-82
2023/05/14 02:04:27;;;;;;;32.00;17.00;;;;;;;;;;106659;1279;22744;-76
2023/05/14 02:06:57;;;;;;;27.70;18.60;;;;;;;;;;106717;1261;24943;-80
2023/05/14 02:09:26;;;;;;;33.10;18.90;;;;;;;;;;106834;1279;25269;-76
2023/05/14 02:11:56;;;;;;;30.30;19.70;;;;;;;;;;106788;1279;24374;-82
2023/05/14 02:14:31;;;;;;;31.40;19.70;;;;;;;;;;106829;1279;22735;-82
2023/05/14 02:16:58;;;;;;;31.80;18.20;;;;;;;;;;106714;1261;26452;-81
2023/05/14 02:19:28;;;;;;;29.30;18.50;;;;;;;;;;106741;1279;22773;-82
2023/05/14 02:21:55;;;;;;;34.00;19.00;;;;;;;;;;106741;1279;22692;-80
2023/05/14 02:24:31;;;;;;;;;;;;;;;;;;;;;
2023/05/14 02:35:26;;;;;;;32.50;18.40;;;;;;;;;;106226;1287;24241;-83
2023/05/14 02:37:55;;;;;;;31.00;18.90;;;;;;;;;;106256;1267;22544;-80
2023/05/14 02:40:25;;;;;;;31.60;18.10;;;;;;;;;;106160;1286;24466;-76
2023/05/14 02:42:55;;;;;;;30.10;17.80;;;;;;;;;;106219;1286;24260;-82
2023/05/14 02:45:30;;;;;;;28.10;16.90;;;;;;;;;;106161;1286;22635;-76
2023/05/14 02:47:57;;;;;;;31.00;16.30;;;;;;;;;;106044;1267;25358;-80
2023/05/14 02:50:24;;;;;;;30.90;17.10;;;;;;;;;;106016;1286;25350;-77
2023/05/14 02:52:51;;;;;;;30.90;17.00;;;;;;;;;;106013;1287;22588;-80
2023/05/14 02:55:28;;;;;;;;;;;;;;;;;;;;;
2023/05/14 02:58:05;;;;;;;30.60;18.40;;;;;;;;;;106389;1267;22529;-79
2023/05/14 03:00:31;;;;;;;30.40;17.50;;;;;;;;;;106683;1280;23642;-76
2023/05/14 03:02:58;;;;;;;27.60;17.90;;;;;;;;;;106405;1265;22535;-83
2023/05/14 03:05:25;;;;;;;31.70;18.60;;;;;;;;;;106433;1280;22834;-77
2023/05/14 03:07:52;;;;;;;29.10;18.30;;;;;;;;;;106803;1273;22520;-82
2023/05/14 03:10:19;;;;;;;26.00;16.80;;;;;;;;;;107002;1275;22520;-76
2023/05/14 03:12:46;;;;;;;29.90;16.80;;;;;;;;;;106869;1275;25510;-79
2023/05/14 03:15:13;;;;;;;27.70;17.10;;;;;;;;;;106887;1275;22852;-76
2023/05/14 03:17:48;;;;;;;27.80;17.20;;;;;;;;;;107026;1253;24820;-80
2023/05/14 03:20:19;;;;;;;30.30;17.80;;;;;;;;;;106923;1275;23863;-81
2023/05/14 03:22:46;;;;;;;28.40;16.30;;;;;;;;;;107028;1264;22527;-81
2023/05/14 03:25:16;;;;;;;27.50;16.80;;;;;;;;;;107026;1275;25253;-76
2023/05/14 03:27:46;;;;;;;27.50;16.40;;;;;;;;;;106869;1275;25366;-78
2023/05/14 03:30:13;;;;;;;30.60;16.60;;;;;;;;;;106874;1275;22520;-82
2023/05/14 03:32:41;;;;;;;28.00;16.00;;;;;;;;;;107023;1275;22539;-77
2023/05/14 03:35:10;;;;;;;23.80;14.00;;;;;;;;;;107043;1275;22615;-80
2023/05/14 03:37:42;;;;;;;26.70;15.50;;;;;;;;;;107042;1256;22753;-83
2023/05/14 03:40:09;;;;;;;30.30;16.10;;;;;;;;;;107002;1275;26552;-80
2023/05/14 03:42:36;;;;;;;29.60;16.70;;;;;;;;;;106891;1275;22635;-79
2023/05/14 03:45:03;;;;;;;28.80;17.00;;;;;;;;;;107016;1275;24231;-76
2023/05/14 03:47:33;;;;;;;27.70;16.60;;;;;;;;;;106977;1253;24275;-83
2023/05/14 03:50:21;;;;;;;26.50;16.60;;;;;;;;;;106908;1275;25284;-79
2023/05/14 03:52:48;;;;;;;30.10;16.50;;;;;;;;;;106905;1275;25268;-81
2023/05/14 03:55:15;;;;;;;24.10;15.20;;;;;;;;;;106891;1274;22522;-77
2023/05/14 03:57:55;;;;;;;27.70;15.50;;;;;;;;;;107018;1254;22527;-76
2023/05/14 04:00:22;;;;;;;27.30;17.10;;;;;;;;;;106899;1275;24060;-77
2023/05/14 04:02:51;;;;;;;30.50;17.40;;;;;;;;;;107030;1275;25315;-80
2023/05/14 04:05:18;;;;;;;25.70;15.50;;;;;;;;;;107043;1275;22520;-81
2023/05/14 04:08:05;;;;;;;28.70;15.70;;;;;;;;;;106827;1275;23867;-76
2023/05/14 04:10:35;;;;;;;25.00;15.80;;;;;;;;;;106871;1257;21730;-75
2023/05/14 04:13:05;;;;;;;26.00;15.30;;;;;;;;;;106853;1275;24186;-78
2023/05/14 04:15:38;;;;;;;25.80;15.70;;;;;;;;;;107035;1275;22991;-82
2023/05/14 04:18:05;;;;;;;27.50;17.10;;;;;;;;;;107035;1275;24033;-78
2023/05/14 04:20:31;;;;;;;28.50;17.40;;;;;;;;;;107029;1275;24345;-77
2023/05/14 04:22:58;;;;;;;29.30;17.30;;;;;;;;;;106876;1275;25281;-83
2023/05/14 04:25:28;;;;;;;24.10;15.00;;;;;;;;;;106989;1275;24312;-81
2023/05/14 04:27:55;;;;;;;23.90;14.80;;;;;;;;;;106894;1275;25465;-79
2023/05/14 04:30:25;;;;;;;26.20;15.60;;;;;;;;;;107030;1252;22600;-82
2023/05/14 04:32:52;;;;;;;24.10;16.10;;;;;;;;;;107022;1275;25400;-77
2023/05/14 04:35:19;;;;;;;26.10;15.90;;;;;;;;;;106858;1275;24218;-81
2023/05/14 04:37:55;;;;;;;25.30;16.30;;;;;;;;;;107000;1275;22523;-79
2023/05/14 04:40:22;;;;;;;29.00;17.40;;;;;;;;;;106863;1257;22523;-77
2023/05/14 04:42:49;;;;;;;28.50;18.00;;;;;;;;;;106864;1275;25346;-76
2023/05/14 04:45:16;;;;;;;27.10;16.10;;;;;;;;;;106897;1275;25250;-76
2023/05/14 04:47:43;;;;;;;27.70;17.30;;;;;;;;;;106857;1275;24409;-81
2023/05/14 04:50:10;;;;;;;29.20;16.90;;;;;;;;;;106855;1259;22513;-81
2023/05/14 04:52:38;;;;;;;27.30;17.40;;;;;;;;;;106898;1275;25347;-79
2023/05/14 04:55:05;;;;;;;28.80;18.50;;;;;;;;;;106890;1275;23688;-76
2023/05/14 04:57:31;;;;;;;27.70;19.20;;;;;;;;;;106880;1275;24370;-76
2023/05/14 04:59:58;;;;;;;35.20;18.60;;;;;;;;;;106896;1258;25233;-75
2023/05/14 05:02:25;;;;;;;33.20;20.50;;;;;;;;;;106862;1275;22513;-78
2023/05/14 05:04:52;;;;;;;35.30;20.80;;;;;;;;;;107017;1275;22652;-76
2023/05/14 05:07:18;;;;;;;29.50;19.70;;;;;;;;;;107045;1275;25353;-80
2023/05/14 05:09:45;;;;;;;31.20;19.20;;;;;;;;;;106883;1260;25360;-75
2023/05/14 05:12:12;;;;;;;31.20;18.50;;;;;;;;;;106752;1275;25268;-75
2023/05/14 05:14:39;;;;;;;26.40;18.10;;;;;;;;;;106745;1275;25428;-77
2023/05/14 05:17:08;;;;;;;24.70;16.10;;;;;;;;;;106886;1275;22525;-77
2023/05/14 05:19:34;;;;;;;23.70;15.80;;;;;;;;;;106849;1254;25268;-80
2023/05/14 05:22:01;;;;;;;25.60;15.50;;;;;;;;;;106849;1275;22641;-80
2023/05/14 05:24:28;;;;;;;26.80;16.70;;;;;;;;;;107003;1275;25191;-76
2023/05/14 05:26:55;;;;;;;28.20;17.90;;;;;;;;;;106878;1275;22974;-75
2023/05/14 05:29:22;;;;;;;30.30;18.50;;;;;;;;;;106888;1275;23895;-80
2023/05/14 05:31:49;;;;;;;32.20;19.20;;;;;;;;;;107042;1275;23864;-82
2023/05/14 05:34:22;;;;;;;32.80;19.60;;;;;;;;;;107039;1275;22595;-82
2023/05/14 05:36:50;;;;;;;30.30;19.70;;;;;;;;;;106874;1275;22527;-82
2023/05/14 05:39:17;;;;;;;32.80;19.50;;;;;;;;;;106885;1275;23643;-82
2023/05/14 05:41:44;;;;;;;34.70;21.20;;;;;;;;;;107036;1256;24143;-75
2023/05/14 05:44:10;;;;;;;36.90;20.80;;;;;;;;;;107007;1275;24232;-82
2023/05/14 05:46:37;;;;;;;32.50;19.60;;;;;;;;;;107026;1275;22996;-82
2023/05/14 05:49:04;;;;;;;33.20;19.60;;;;;;;;;;106864;1275;25201;-77
2023/05/14 05:51:32;;;;;;;28.40;19.80;;;;;;;;;;107014;1254;25401;-79
2023/05/14 05:54:01;;;;;;;30.50;19.10;;;;;;;;;;107111;1275;22521;-76
2023/05/14 05:56:28;;;;;;;31.90;18.60;;;;;;;;;;107050;1275;24241;-78
2023/05/14 05:58:55;;;;;;;29.00;18.60;;;;;;;;;;107099;1275;22518;-79
2023/05/14 06:01:22;;;;;;;26.80;18.10;;;;;;;;;;107009;1258;25407;-76
2023/05/14 06:03:52;;;;;;;28.50;16.90;;;;;;;;;;107115;1275;24249;-80
2023/05/14 06:06:19;;;;;;;25.50;18.00;;;;;;;;;;107101;1275;25453;-82
2023/05/14 06:08:45;;;;;;;26.60;17.50;;;;;;;;;;107040;1275;22520;-76
2023/05/14 06:11:12;;;;;;;24.00;17.20;;;;;;;;;;107060;1256;22639;-82
2023/05/14 06:13:39;;;;;;;24.90;17.40;;;;;;;;;;106903;1275;22537;-80
2023/05/14 06:16:06;;;;;;;26.00;17.10;;;;;;;;;;107131;1275;22523;-78
2023/05/14 06:18:32;;;;;;;26.30;17.70;;;;;;;;;;107126;1275;22562;-79
2023/05/14 06:20:59;;;;;;;26.30;17.00;;;;;;;;;;107110;1275;22528;-80
2023/05/14 06:23:26;;;;;;;26.00;16.60;;;;;;;;;;107079;1269;25223;-76
2023/05/14 06:25:52;;;;;;;23.40;17.00;;;;;;;;;;107017;1275;22520;-83
2023/05/14 06:28:19;;;;;;;23.50;16.80;;;;;;;;;;107133;1275;22518;-82
2023/05/14 06:30:48;;;;;;;22.60;16.60;;;;;;;;;;107148;1263;25326;-75
2023/05/14 06:33:15;;;;;;;23.40;16.60;;;;;;;;;;107037;1256;25325;-75
2023/05/14 06:35:42;;;;;;;24.30;18.30;;;;;;;;;;106983;1275;25272;-76
2023/05/14 06:38:08;;;;;;;25.80;17.30;;;;;;;;;;107062;1271;22483;-80
2023/05/14 06:40:35;;;;;;;23.40;16.70;;;;;;;;;;107066;1275;25355;-78
2023/05/14 06:43:02;;;;;;;25.80;17.40;;;;;;;;;;107027;1256;24231;-80
2023/05/14 06:45:38;;;;;;;26.50;17.30;;;;;;;;;;107034;1275;22526;-83
2023/05/14 06:48:05;;;;;;;26.10;18.40;;;;;;;;;;106930;1275;25338;-76
2023/05/14 06:50:32;;;;;;;23.90;18.00;;;;;;;;;;106875;1275;25293;-76
2023/05/14 06:52:59;;;;;;;25.40;18.40;;;;;;;;;;106865;1259;22761;-77
2023/05/14 06:55:25;;;;;;;27.30;19.30;;;;;;;;;;106857;1275;23115;-82
2023/05/14 06:57:52;;;;;;;28.70;19.60;;;;;;;;;;107024;1275;22523;-83
2023/05/14 07:00:19;;;;;;;28.80;18.50;;;;;;;;;;106906;1276;23094;-77
2023/05/14 07:02:46;;;;;;;30.60;20.80;;;;;;;;;;106938;1259;24836;-82
2023/05/14 07:05:13;;;;;;;26.60;18.30;;;;;;;;;;107017;1275;22575;-78
2023/05/14 07:07:40;;;;;;;26.50;17.30;;;;;;;;;;106998;1275;24246;-83
2023/05/14 07:10:07;;;;;;;25.50;16.80;;;;;;;;;;106868;1275;22524;-83
2023/05/14 07:12:33;;;;;;;23.10;15.10;;;;;;;;;;106890;1269;25393;-77
2023/05/14 07:15:00;;;;;;;23.50;14.40;;;;;;;;;;106879;1275;24342;-84
2023/05/14 07:17:26;;;;;;;22.60;15.70;;;;;;;;;;106894;1275;24145;-77
2023/05/14 07:19:54;;;;;;;21.40;14.80;;;;;;;;;;106989;1275;22514;-79
2023/05/14 07:22:21;;;;;;;28.10;16.20;;;;;;;;;;106902;1254;22582;-83
2023/05/14 07:24:49;;;;;;;23.60;15.40;;;;;;;;;;106913;1275;24231;-82
2023/05/14 07:27:16;;;;;;;22.20;15.40;;;;;;;;;;107006;1275;22495;-79
2023/05/14 07:29:43;;;;;;;23.10;15.50;;;;;;;;;;106894;1275;25204;-77
2023/05/14 07:32:10;;;;;;;26.70;17.70;;;;;;;;;;106901;1275;22796;-78
2023/05/14 07:34:36;;;;;;;22.90;14.40;;;;;;;;;;107028;1275;24253;-80
2023/05/14 07:37:04;;;;;;;24.30;14.10;;;;;;;;;;107051;1275;25249;-77
2023/05/14 07:39:31;;;;;;;24.00;14.90;;;;;;;;;;106969;1275;22513;-85
2023/05/14 07:41:59;;;;;;;21.40;14.90;;;;;;;;;;106902;1275;22532;-81
2023/05/14 07:44:26;;;;;;;18.40;12.70;;;;;;;;;;107032;1256;22600;-82
2023/05/14 07:46:52;;;;;;;19.10;13.60;;;;;;;;;;107064;1275;22527;-77
2023/05/14 07:49:19;;;;;;;19.50;12.70;;;;;;;;;;107210;1269;22522;-79
2023/05/14 07:51:46;;;;;;;17.40;12.30;;;;;;;;;;107132;1269;22489;-76
2023/05/14 07:54:18;;;;;;;18.60;11.50;;;;;;;;;;106854;1258;25485;-77
2023/05/14 07:56:45;;;;;;;17.40;12.20;;;;;;;;;;106975;1275;25291;-80
2023/05/14 07:59:12;;;;;;;17.70;12.40;;;;;;;;;;106935;1274;25441;-78
2023/05/14 08:01:39;;;;;;;18.70;12.20;;;;;;;;;;104789;1270;3174386;-78
2023/05/14 08:04:06;;;;;;;17.00;11.20;;;;;;;;;;107095;1266;22525;-78
2023/05/14 08:06:33;;;;;;;15.50;11.90;;;;;;;;;;106963;1275;22511;-78
2023/05/14 08:09:00;;;;;;;16.60;11.70;;;;;;;;;;107157;1275;22626;-82
2023/05/14 08:11:27;;;;;;;17.20;11.50;;;;;;;;;;107111;1275;22532;-79
2023/05/14 08:13:55;;;;;;;17.30;11.40;;;;;;;;;;107040;1253;22524;-84
2023/05/14 08:16:25;;;;;;;18.70;12.50;;;;;;;;;;107160;1270;25233;-82
2023/05/14 08:18:52;;;;;;;18.50;11.70;;;;;;;;;;107148;1275;24057;-81
2023/05/14 08:21:19;;;;;;;16.80;11.70;;;;;;;;;;107116;1275;26489;-78
2023/05/14 08:23:48;;;;;;;18.90;11.40;;;;;;;;;;106927;1257;22531;-80
2023/05/14 08:26:15;;;;;;;18.00;11.40;;;;;;;;;;106900;1267;22679;-80
2023/05/14 08:28:44;;;;;;;17.10;11.90;;;;;;;;;;107171;1269;24215;-79
2023/05/14 08:31:13;;;;;;;16.30;11.60;;;;;;;;;;107166;1253;22563;-81
2023/05/14 08:33:43;;;;;;;14.80;10.30;;;;;;;;;;107177;1254;24250;-79
2023/05/14 08:36:10;;;;;;;14.40;10.10;;;;;;;;;;107036;1272;24191;-84
2023/05/14 08:38:37;;;;;;;15.60;9.90;;;;;;;;;;107099;1275;22514;-84
2023/05/14 08:41:04;;;;;;;14.50;9.40;;;;;;;;;;107093;1275;22564;-78
2023/05/14 08:43:36;;;;;;;13.80;8.80;;;;;;;;;;107114;1275;24235;-77
2023/05/14 08:46:04;;;;;;;12.10;7.80;;;;;;;;;;107075;1257;25319;-80
2023/05/14 08:48:33;;;;;;;15.10;8.80;;;;;;;;;;106940;1275;22524;-81
2023/05/14 08:51:00;;;;;;;12.70;8.80;;;;;;;;;;106930;1275;24245;-85
2023/05/14 08:53:27;;;;;;;11.90;9.00;;;;;;;;;;107134;1275;23985;-82
2023/05/14 08:55:54;;;;;;;14.30;9.30;;;;;;;;;;107005;1254;22523;-84
2023/05/14 08:58:20;;;;;;;15.00;9.80;;;;;;;;;;107062;1275;22524;-81
2023/05/14 09:00:47;;;;;;;13.50;9.70;;;;;;;;;;107103;1275;24231;-87
2023/05/14 09:03:14;;;;;;;15.30;10.20;;;;;;;;;;107044;1275;22534;-78
2023/05/14 09:05:41;;;;;;;14.90;10.70;;;;;;;;;;107094;1269;24459;-81
2023/05/14 09:08:08;;;;;;;14.70;10.00;;;;;;;;;;107221;1267;22556;-79
2023/05/14 09:10:36;;;;;;;15.40;10.10;;;;;;;;;;106995;1272;24418;-79
2023/05/14 09:13:04;;;;;;;17.40;10.80;;;;;;;;;;107150;1269;22779;-79
2023/05/14 09:15:31;;;;;;;19.00;11.50;;;;;;;;;;107123;1254;24234;-82
2023/05/14 09:17:58;;;;;;;19.20;12.60;;;;;;;;;;107205;1268;22509;-81
2023/05/14 09:20:27;;;;;;;16.10;11.60;;;;;;;;;;106882;1274;24371;-78
2023/05/14 09:22:53;;;;;;;15.50;10.50;;;;;;;;;;107152;1272;25389;-78
2023/05/14 09:25:25;;;;;;;13.50;9.70;;;;;;;;;;107183;1257;22531;-84
2023/05/14 09:27:53;;;;;;;14.00;9.90;;;;;;;;;;107155;1271;26051;-83
2023/05/14 09:30:20;;;;;;;15.70;10.20;;;;;;;;;;107193;1270;24878;-80
2023/05/14 09:32:49;;;;;;;16.30;10.40;;;;;;;;;;107197;1270;24190;-79
2023/05/14 09:35:17;;;;;;;13.80;9.40;;;;;;;;;;107066;1257;22519;-81
2023/05/14 09:37:48;;;;;;;12.50;8.80;;;;;;;;;;107069;1270;22524;-78
2023/05/14 09:40:16;;;;;;;13.30;8.00;;;;;;;;;;107183;1268;25574;-80
2023/05/14 09:42:43;;;;;;;11.90;7.50;;;;;;;;;;107012;1272;23571;-79
2023/05/14 09:45:10;;;;;;;10.80;7.70;;;;;;;;;;106804;1254;22641;-82
2023/05/14 09:47:38;;;;;;;11.00;7.50;;;;;;;;;;106993;1271;22626;-78
2023/05/14 09:50:05;;;;;;;9.30;5.60;;;;;;;;;;107329;1275;22535;-77
2023/05/14 09:52:33;;;;;;;11.30;8.20;;;;;;;;;;107429;1275;23294;-77
2023/05/14 09:55:00;;;;;;;13.80;8.00;;;;;;;;;;107005;1275;22576;-77
2023/05/14 09:57:27;;;;;;;12.60;7.60;;;;;;;;;;106883;1270;25059;-80
2023/05/14 09:59:54;;;;;;;9.50;5.80;;;;;;;;;;106865;1275;25346;-78
2023/05/14 10:02:22;;;;;;;14.20;8.80;;;;;;;;;;106771;1275;25468;-78
2023/05/14 10:04:50;;;;;;;15.50;9.50;;;;;;;;;;106841;1275;25440;-79
2023/05/14 10:07:18;;;;;;;11.50;6.90;;;;;;;;;;107356;1257;22563;-83
2023/05/14 10:09:45;;;;;;;10.30;6.30;;;;;;;;;;107127;1275;22535;-79
2023/05/14 10:12:14;;;;;;;13.90;8.80;;;;;;;;;;107018;1275;24393;-79
2023/05/14 10:14:46;;;;;;;10.60;6.40;;;;;;;;;;107025;1275;24351;-78
2023/05/14 10:17:17;;;;;;;8.70;5.30;;;;;;;;;;106914;1275;22540;-86
2023/05/14 10:19:46;;;;;;;10.50;5.30;;;;;;;;;;107033;1274;25175;-77
2023/05/14 10:22:14;;;;;;;8.60;4.80;;;;;;;;;;107080;1275;26554;-79
2023/05/14 10:24:41;;;;;;;9.50;5.60;;;;;;;;;;107184;1275;22521;-80
2023/05/14 10:27:09;;;;;;;9.10;5.40;;;;;;;;;;107029;1256;25353;-79
2023/05/14 10:29:36;;;;;;;9.70;5.80;;;;;;;;;;110630;1275;22167;-77
2023/05/14 10:32:08;;;;;;;12.60;5.90;;;;;;;;;;110480;1274;22065;-76
2023/05/14 10:34:44;;;;;;;10.70;6.80;;;;;;;;;;110588;1275;22160;-76
2023/05/14 10:37:13;;;;;;;10.20;5.60;;;;;;;;;;110746;1256;22127;-75
2023/05/14 10:39:44;;;;;;;10.00;5.80;;;;;;;;;;110613;1275;23131;-76
2023/05/14 10:42:12;;;;;;;8.70;5.50;;;;;;;;;;110492;1275;22116;-76
2023/05/14 10:45:00;;;;;;;11.50;7.40;;;;;;;;;;110636;1275;22930;-76
2023/05/14 10:47:27;;;;;;;11.40;6.80;;;;;;;;;;110659;1256;22420;-76
2023/05/14 10:49:55;;;;;;;13.80;8.00;;;;;;;;;;110632;1275;22102;-76
2023/05/14 10:52:23;;;;;;;11.70;7.00;;;;;;;;;;110613;1275;22400;-76
2023/05/14 10:54:53;;;;;;;9.50;6.30;;;;;;;;;;110602;1275;22107;-75
2023/05/14 10:57:21;;;;;;;10.90;6.70;;;;;;;;;;110708;1259;23107;-76
2023/05/14 10:59:51;;;;;;;13.20;6.40;;;;;;;;;;110615;1275;22138;-76
2023/05/14 11:02:20;;;;;;;10.20;6.10;;;;;;;;;;110462;1275;22123;-77
2023/05/14 11:05:14;;;;;;;9.70;5.30;;;;;;;;;;110614;1275;21992;-76
2023/05/14 11:07:42;;;;;;;9.80;5.10;;;;;;;;;;110745;1256;22853;-77
2023/05/14 11:10:09;;;;;;;9.00;5.20;;;;;;;;;;110560;1275;22097;-77
2023/05/14 11:12:38;;;;;;;10.40;6.50;;;;;;;;;;110607;1275;22542;-75
2023/05/14 11:15:09;;;;;;;8.50;5.40;;;;;;;;;;110642;1275;22113;-76
2023/05/14 11:17:36;;;;;;;12.10;6.70;;;;;;;;;;110783;1253;22332;-76
2023/05/14 11:20:06;;;;;;;9.20;4.80;;;;;;;;;;110637;1275;22134;-77
2023/05/14 11:22:37;;;;;;;9.90;5.20;;;;;;;;;;110456;1275;22228;-76
2023/05/14 11:25:05;;;;;;;9.40;5.70;;;;;;;;;;110601;1275;22788;-77
2023/05/14 11:27:57;;;;;;;10.10;4.60;;;;;;;;;;110678;1257;22162;-77
2023/05/14 11:30:23;;;;;;;9.60;4.10;;;;;;;;;;110646;1275;22462;-77
2023/05/14 11:32:51;;;;;;;7.50;3.90;;;;;;;;;;110620;1275;22299;-78
2023/05/14 11:35:18;;;;;;;7.50;3.80;;;;;;;;;;110588;1275;22142;-77
2023/05/14 11:37:51;;;;;;;8.30;3.80;;;;;;;;;;110590;1259;22191;-78
2023/05/14 11:40:18;;;;;;;8.50;4.00;;;;;;;;;;110305;1276;22114;-79
2023/05/14 11:42:45;;;;;;;7.50;4.20;;;;;;;;;;110308;1276;22130;-78
2023/05/14 11:45:13;;;;;;;10.50;5.70;;;;;;;;;;110551;1276;22105;-79
2023/05/14 11:47:40;;;;;;;9.90;4.70;;;;;;;;;;110321;1254;22123;-78
2023/05/14 11:50:07;;;;;;;14.30;6.70;;;;;;;;;;110445;1276;22128;-78
2023/05/14 11:52:40;;;;;;;40.20;24.80;;;;;;;;;;110548;1276;22783;-79
2023/05/14 11:55:11;;;;;;;74.00;41.20;;;;;;;;;;110386;1276;22111;-78
2023/05/14 11:57:38;;;;;;;17.50;10.10;;;;;;;;;;110592;1254;22143;-78
2023/05/14 12:00:06;;;;;;;8.90;4.60;;;;;;;;;;110291;1276;22084;-78
2023/05/14 12:02:35;;;;;;;8.40;3.80;;;;;;;;;;110569;1276;22191;-78
2023/05/14 12:05:05;;;;;;;7.10;3.80;;;;;;;;;;110529;1276;22118;-78
2023/05/14 12:07:32;;;;;;;17.70;8.60;;;;;;;;;;110574;1276;22360;-79
2023/05/14 12:10:05;;;;;;;12.60;5.90;;;;;;;;;;110852;1259;22210;-77
2023/05/14 12:12:38;;;;;;;8.50;4.30;;;;;;;;;;110418;1276;22497;-78
2023/05/14 12:15:18;;;;;;;6.60;3.80;;;;;;;;;;110428;1276;22114;-78
2023/05/14 12:17:50;;;;;;;9.50;4.00;;;;;;;;;;110415;1276;22373;-79
2023/05/14 12:20:17;;;;;;;18.60;11.20;;;;;;;;;;110339;1259;22924;-78
2023/05/14 12:22:44;;;;;;;9.40;5.00;;;;;;;;;;110563;1276;22122;-78
2023/05/14 12:25:14;;;;;;;14.70;10.00;;;;;;;;;;110440;1276;22109;-78
2023/05/14 12:27:43;;;;;;;9.90;5.20;;;;;;;;;;110341;1276;22389;-78
2023/05/14 12:30:11;;;;;;;8.60;4.30;;;;;;;;;;110596;1260;23055;-79
2023/05/14 12:32:40;;;;;;;6.90;3.60;;;;;;;;;;110307;1276;22874;-79
2023/05/14 12:35:08;;;;;;;7.20;3.70;;;;;;;;;;110571;1276;22122;-79
2023/05/14 12:37:36;;;;;;;7.60;3.90;;;;;;;;;;110293;1276;22109;-78
2023/05/14 12:40:07;;;;;;;7.70;4.10;;;;;;;;;;110748;1259;22166;-78
2023/05/14 12:42:35;;;;;;;7.50;4.10;;;;;;;;;;110460;1277;22239;-79
2023/05/14 12:45:04;;;;;;;6.30;3.50;;;;;;;;;;110452;1277;22117;-79
2023/05/14 12:47:31;;;;;;;7.10;3.10;;;;;;;;;;110431;1277;22133;-80
2023/05/14 12:49:57;;;;;;;7.30;3.60;;;;;;;;;;110694;1259;22149;-79
2023/05/14 12:52:24;;;;;;;10.30;3.80;;;;;;;;;;110469;1277;22087;-79
2023/05/14 12:54:51;;;;;;;7.10;3.40;;;;;;;;;;110445;1277;22104;-78
2023/05/14 12:57:17;;;;;;;6.70;2.90;;;;;;;;;;110423;1277;22119;-78
2023/05/14 12:59:44;;;;;;;6.80;3.60;;;;;;;;;;110525;1257;22316;-78
2023/05/14 13:02:11;;;;;;;9.30;4.00;;;;;;;;;;110454;1277;22084;-79
2023/05/14 13:04:38;;;;;;;9.50;3.90;;;;;;;;;;110259;1277;22112;-78
2023/05/14 13:07:04;;;;;;;7.70;3.80;;;;;;;;;;110326;1278;22145;-77
2023/05/14 13:09:31;;;;;;;6.70;3.50;;;;;;;;;;110382;1259;23011;-79
2023/05/14 13:11:58;;;;;;;7.50;3.50;;;;;;;;;;110466;1277;22168;-78
2023/05/14 13:14:24;;;;;;;8.10;3.20;;;;;;;;;;110428;1277;22371;-78
2023/05/14 13:16:51;;;;;;;7.60;3.20;;;;;;;;;;110450;1277;22116;-78
2023/05/14 13:19:17;;;;;;;5.80;3.10;;;;;;;;;;110254;1254;22829;-78
2023/05/14 13:21:44;;;;;;;6.80;3.30;;;;;;;;;;110441;1277;22108;-79
2023/05/14 13:24:11;;;;;;;7.90;4.20;;;;;;;;;;110426;1277;22146;-79
2023/05/14 13:26:37;;;;;;;32.00;15.10;;;;;;;;;;110353;1277;22132;-80
2023/05/14 13:29:04;;;;;;;10.90;3.90;;;;;;;;;;110264;1277;22137;-79
2023/05/14 13:31:31;;;;;;;9.40;4.20;;;;;;;;;;110711;1260;22160;-79
2023/05/14 13:33:58;;;;;;;7.60;3.20;;;;;;;;;;110439;1277;22076;-79
2023/05/14 13:36:25;;;;;;;7.90;3.20;;;;;;;;;;110443;1277;22968;-79
2023/05/14 13:38:51;;;;;;;6.60;3.20;;;;;;;;;;110357;1278;22269;-79
2023/05/14 13:41:18;;;;;;;6.80;2.80;;;;;;;;;;110493;1260;22123;-80
2023/05/14 13:43:45;;;;;;;6.80;3.30;;;;;;;;;;110194;1277;22550;-79
2023/05/14 13:46:12;;;;;;;7.30;3.10;;;;;;;;;;110291;1278;22113;-78
2023/05/14 13:48:39;;;;;;;6.60;3.10;;;;;;;;;;110293;1278;22805;-80
2023/05/14 13:51:06;;;;;;;6.50;3.30;;;;;;;;;;110546;1260;22212;-79
2023/05/14 13:53:33;;;;;;;7.60;3.30;;;;;;;;;;110449;1278;22105;-78
2023/05/14 13:56:00;;;;;;;9.30;3.20;;;;;;;;;;110298;1278;22111;-79
2023/05/14 13:58:27;;;;;;;7.60;3.50;;;;;;;;;;110432;1278;22809;-88
2023/05/14 14:00:55;;;;;;;7.00;3.10;;;;;;;;;;110604;1259;22164;-78
2023/05/14 14:03:22;;;;;;;7.50;3.50;;;;;;;;;;110417;1278;22090;-78
2023/05/14 14:05:49;;;;;;;6.70;3.20;;;;;;;;;;110434;1278;22153;-79
2023/05/14 14:08:15;;;;;;;9.00;3.70;;;;;;;;;;110433;1278;22113;-79
2023/05/14 14:10:42;;;;;;;6.40;3.30;;;;;;;;;;110175;1263;22130;-79
2023/05/14 14:13:09;;;;;;;7.00;3.20;;;;;;;;;;110427;1278;23127;-80
2023/05/14 14:15:35;;;;;;;7.60;3.70;;;;;;;;;;110143;1278;22298;-78
2023/05/14 14:18:02;;;;;;;6.30;3.60;;;;;;;;;;110424;1278;22972;-78
2023/05/14 14:20:30;;;;;;;6.00;3.10;;;;;;;;;;110399;1254;22168;-78
2023/05/14 14:22:56;;;;;;;7.60;3.40;;;;;;;;;;110184;1278;22904;-78
2023/05/14 14:25:23;;;;;;;7.30;3.80;;;;;;;;;;110167;1278;22106;-78
2023/05/14 14:27:50;;;;;;;7.20;4.00;;;;;;;;;;110303;1278;22511;-78
2023/05/14 14:30:16;;;;;;;6.30;3.60;;;;;;;;;;110437;1278;22098;-78
2023/05/14 14:32:47;;;;;;;7.50;3.60;;;;;;;;;;110742;1267;22320;-78
2023/05/14 14:35:14;;;;;;;8.20;3.50;;;;;;;;;;110294;1278;22210;-78
2023/05/14 14:37:42;;;;;;;7.70;3.50;;;;;;;;;;110215;1278;22150;-78